createdAt,value
2022-08-17T00:01:22.536Z,19.83
2022-08-17T00:03:52.273Z,19.78
2022-08-17T00:06:19.968Z,19.78
2022-08-17T00:08:46.037Z,19.76
2022-08-17T00:11:13.732Z,19.65
2022-08-17T00:13:42.677Z,19.67
2022-08-17T00:16:14.465Z,19.69
2022-08-17T00:19:01.382Z,19.65
2022-08-17T00:21:25.474Z,19.62
2022-08-17T00:23:49.467Z,19.61
2022-08-17T00:26:14.303Z,19.54
2022-08-17T00:28:39.828Z,19.52
2022-08-17T00:31:03.949Z,19.56
2022-08-17T00:33:32.420Z,19.58
2022-08-17T00:35:57.836Z,19.54
2022-08-17T00:38:22.800Z,19.50
2022-08-17T00:40:50.387Z,19.46
2022-08-17T00:43:20.046Z,19.31
2022-08-17T00:45:45.035Z,19.31
2022-08-17T00:48:11.536Z,19.36
2022-08-17T00:51:01.229Z,19.40
2022-08-17T00:53:26.071Z,19.34
2022-08-17T00:55:50.437Z,19.26
2022-08-17T00:58:14.406Z,19.24
2022-08-17T01:00:43.162Z,19.23
2022-08-17T01:03:11.946Z,19.20
2022-08-17T01:05:42.183Z,19.19
2022-08-17T01:08:11.348Z,19.21
2022-08-17T01:10:59.736Z,19.20
2022-08-17T01:13:28.737Z,19.20
2022-08-17T01:15:58.663Z,19.19
2022-08-17T01:18:22.587Z,19.18
2022-08-17T01:20:52.408Z,19.16
2022-08-17T01:23:20.783Z,19.12
2022-08-17T01:25:45.476Z,19.10
2022-08-17T01:28:12.946Z,19.05
2022-08-17T01:30:59.519Z,18.99
2022-08-17T01:33:23.319Z,18.97
2022-08-17T01:35:47.108Z,18.98
2022-08-17T01:38:10.796Z,18.99
2022-08-17T01:40:39.726Z,18.99
2022-08-17T01:43:10.469Z,18.98
2022-08-17T01:45:40.620Z,18.93
2022-08-17T01:48:04.673Z,18.88
2022-08-17T01:50:35.012Z,18.90
2022-08-17T01:53:14.881Z,18.82
2022-08-17T01:55:47.519Z,18.84
2022-08-17T01:58:11.433Z,18.84
2022-08-17T02:00:59.630Z,18.83
2022-08-17T02:03:19.600Z,18.81
2022-08-17T02:05:43.306Z,18.82
2022-08-17T02:08:08.453Z,18.80
2022-08-17T02:10:46.819Z,18.76
2022-08-17T02:13:11.615Z,18.75
2022-08-17T02:15:35.892Z,18.74
2022-08-17T02:17:59.650Z,18.75
2022-08-17T02:20:41.585Z,18.60
2022-08-17T02:23:09.524Z,18.64
2022-08-17T02:25:35.140Z,18.67
2022-08-17T02:28:01.018Z,18.64
2022-08-17T02:30:59.578Z,18.50
2022-08-17T02:33:10.182Z,18.56
2022-08-17T02:35:33.980Z,18.53
2022-08-17T02:37:58.120Z,18.54
2022-08-17T02:40:36.003Z,18.56
2022-08-17T02:43:02.171Z,18.57
2022-08-17T02:45:28.074Z,18.53
2022-08-17T02:47:53.120Z,18.52
2022-08-17T02:50:20.279Z,18.56
2022-08-17T02:52:47.474Z,18.53
2022-08-17T02:55:28.941Z,18.54
2022-08-17T02:57:53.247Z,18.50
2022-08-17T03:00:28.854Z,18.44
2022-08-17T03:02:53.521Z,18.53
2022-08-17T03:05:20.141Z,18.46
2022-08-17T03:07:44.106Z,18.42
2022-08-17T03:10:09.524Z,18.43
2022-08-17T03:12:39.281Z,18.37
2022-08-17T03:15:05.975Z,18.37
2022-08-17T03:17:31.250Z,18.40
2022-08-17T03:19:54.960Z,18.36
2022-08-17T03:22:35.528Z,18.33
2022-08-17T03:25:02.561Z,18.36
2022-08-17T03:27:27.735Z,18.31
2022-08-17T03:29:51.561Z,18.30
2022-08-17T03:32:17.935Z,18.35
2022-08-17T03:34:43.479Z,18.33
2022-08-17T03:37:07.266Z,18.35
2022-08-17T03:39:31.295Z,18.38
2022-08-17T03:41:55.164Z,18.25
2022-08-17T03:44:18.984Z,18.23
2022-08-17T03:47:00.059Z,18.26
2022-08-17T03:49:41.340Z,18.24
2022-08-17T03:52:24.017Z,18.20
2022-08-17T03:55:05.591Z,18.22
2022-08-17T03:57:30.257Z,18.19
2022-08-17T03:59:54.785Z,18.20
2022-08-17T04:02:22.995Z,17.88
2022-08-17T04:04:47.089Z,17.64
2022-08-17T04:07:12.669Z,17.56
2022-08-17T04:09:37.816Z,17.61
2022-08-17T04:12:04.550Z,17.78
2022-08-17T04:14:31.309Z,17.92
2022-08-17T04:16:55.308Z,17.97
2022-08-17T04:19:19.169Z,18.04
2022-08-17T04:21:43.110Z,18.11
2022-08-17T04:24:08.976Z,18.11
2022-08-17T04:26:53.232Z,18.10
2022-08-17T04:29:18.040Z,18.13
2022-08-17T04:31:41.877Z,18.15
2022-08-17T04:34:05.837Z,18.16
2022-08-17T04:36:29.748Z,18.21
2022-08-17T04:38:53.565Z,18.26
2022-08-17T04:41:36.428Z,18.27
2022-08-17T04:44:00.992Z,18.31
2022-08-17T04:46:27.735Z,18.35
2022-08-17T04:48:55.923Z,18.43
2022-08-17T04:51:24.005Z,18.46
2022-08-17T04:53:54.203Z,18.52
2022-08-17T04:56:20.369Z,18.62
2022-08-17T04:58:44.685Z,18.64
2022-08-17T05:01:09.106Z,18.71
2022-08-17T05:03:33.595Z,18.75
2022-08-17T05:05:57.598Z,18.83
2022-08-17T05:08:23.104Z,18.93
2022-08-17T05:10:47.229Z,18.97
2022-08-17T05:13:16.732Z,19.07
2022-08-17T05:15:45.143Z,19.16
2022-08-17T05:18:11.733Z,19.24
2022-08-17T05:20:37.070Z,19.32
2022-08-17T05:23:04.721Z,19.44
2022-08-17T05:25:36.173Z,19.54
2022-08-17T05:28:02.119Z,19.62
2022-08-17T05:30:28.578Z,19.60
2022-08-17T05:32:54.800Z,19.71
2022-08-17T05:35:18.841Z,19.71
2022-08-17T05:37:42.682Z,19.80
2022-08-17T05:40:08.735Z,19.91
2022-08-17T05:42:32.741Z,19.96
2022-08-17T05:44:59.576Z,20.04
2022-08-17T05:47:26.598Z,20.18
2022-08-17T05:49:50.370Z,20.31
2022-08-17T05:52:30.052Z,20.55
2022-08-17T05:55:08.150Z,20.81
2022-08-17T05:57:52.877Z,21.10
2022-08-17T06:00:26.264Z,21.40
2022-08-17T06:03:16.365Z,21.79
2022-08-17T06:06:06.195Z,22.26
2022-08-17T06:08:39.584Z,22.47
2022-08-17T06:11:13.026Z,22.68
2022-08-17T06:13:56.208Z,23.06
2022-08-17T06:16:33.309Z,23.40
2022-08-17T06:19:05.148Z,23.77
2022-08-17T06:21:34.599Z,24.41
2022-08-17T06:24:23.952Z,24.74
2022-08-17T06:26:48.077Z,25.09
2022-08-17T06:29:24.944Z,25.30
2022-08-17T06:31:49.068Z,25.87
2022-08-17T06:34:15.048Z,26.19
2022-08-17T06:36:50.914Z,26.76
2022-08-17T06:39:39.004Z,27.51
2022-08-17T06:43:00.818Z,27.91
2022-08-17T06:45:09.848Z,27.98
2022-08-17T06:47:38.933Z,28.68
2022-08-17T06:50:14.720Z,29.15
2022-08-17T06:52:49.948Z,29.06
2022-08-17T06:55:20.307Z,29.35
2022-08-17T06:57:47.695Z,29.53
2022-08-17T07:00:18.120Z,29.53
2022-08-17T07:02:52.657Z,29.53
2022-08-17T07:05:22.466Z,29.50
2022-08-17T07:08:04.672Z,29.40
2022-08-17T07:10:32.951Z,29.48
2022-08-17T07:13:02.316Z,29.47
2022-08-17T07:15:34.081Z,29.32
2022-08-17T07:17:59.755Z,29.21
2022-08-17T07:20:25.381Z,29.42
2022-08-17T07:23:00.129Z,29.42
2022-08-17T07:25:24.433Z,29.13
2022-08-17T07:27:52.599Z,29.03
2022-08-17T07:30:20.512Z,29.05
2022-08-17T07:32:48.206Z,28.65
2022-08-17T07:35:22.098Z,28.94
2022-08-17T07:37:53.208Z,29.05
2022-08-17T07:40:32.126Z,28.89
2022-08-17T07:43:26.446Z,28.79
2022-08-17T07:46:26.540Z,28.72
2022-08-17T07:48:53.616Z,28.81
2022-08-17T07:51:27.056Z,28.88
2022-08-17T07:53:52.528Z,28.90
2022-08-17T07:56:37.889Z,28.74
2022-08-17T07:59:12.244Z,28.84
2022-08-17T08:01:39.592Z,28.80
2022-08-17T08:04:59.080Z,28.73
2022-08-17T08:07:25.965Z,28.59
2022-08-17T08:10:07.652Z,28.98
2022-08-17T08:12:36.322Z,28.91
2022-08-17T08:15:03.849Z,28.89
2022-08-17T08:17:35.710Z,28.95
2022-08-17T08:20:01.357Z,29.01
2022-08-17T08:23:04.908Z,28.96
2022-08-17T08:25:45.483Z,28.97
2022-08-17T08:28:25.636Z,28.82
2022-08-17T08:30:54.999Z,28.93
2022-08-17T08:33:39.925Z,29.12
2022-08-17T08:37:12.610Z,28.97
2022-08-17T08:39:10.744Z,29.11
2022-08-17T08:41:44.912Z,29.04
2022-08-17T08:45:00.677Z,28.69
2022-08-17T08:47:22.192Z,28.84
2022-08-17T08:50:37.701Z,29.15
2022-08-17T08:53:30.868Z,29.17
2022-08-17T08:56:00.361Z,29.20
2022-08-17T08:58:42.333Z,29.16
2022-08-17T09:01:16.661Z,29.19
2022-08-17T09:04:23.403Z,29.07
2022-08-17T09:07:03.461Z,29.08
2022-08-17T09:09:37.398Z,29.33
2022-08-17T09:12:08.072Z,29.44
2022-08-17T09:14:45.152Z,29.36
2022-08-17T09:17:18.313Z,29.44
2022-08-17T09:19:48.159Z,29.45
2022-08-17T09:22:23.969Z,29.44
2022-08-17T09:24:54.715Z,29.58
2022-08-17T09:27:22.198Z,29.65
2022-08-17T09:29:53.188Z,29.72
2022-08-17T09:32:21.913Z,29.59
2022-08-17T09:34:52.759Z,29.89
2022-08-17T09:37:25.702Z,29.83
2022-08-17T09:40:00.337Z,29.74
2022-08-17T09:42:31.483Z,29.91
2022-08-17T09:45:10.835Z,30.18
2022-08-17T09:47:45.582Z,30.42
2022-08-17T09:50:14.916Z,30.32
2022-08-17T09:52:39.289Z,30.77
2022-08-17T09:55:03.820Z,31.12
2022-08-17T09:57:49.467Z,31.22
2022-08-17T10:00:25.237Z,31.34
2022-08-17T10:03:28.440Z,31.23
2022-08-17T10:05:59.519Z,31.65
2022-08-17T10:08:35.538Z,31.98
2022-08-17T10:11:18.529Z,32.27
2022-08-17T10:13:53.412Z,32.54
2022-08-17T10:16:28.917Z,32.89
2022-08-17T10:19:03.873Z,32.62
2022-08-17T10:21:45.537Z,32.91
2022-08-17T10:24:33.164Z,32.74
2022-08-17T10:27:00.025Z,33.02
2022-08-17T10:29:29.118Z,33.24
2022-08-17T10:32:04.245Z,33.30
2022-08-17T10:35:02.276Z,33.58
2022-08-17T10:37:55.025Z,33.69
2022-08-17T10:40:36.821Z,33.71
2022-08-17T10:43:12.079Z,32.96
2022-08-17T10:45:49.304Z,33.61
2022-08-17T10:48:37.977Z,33.85
2022-08-17T10:51:09.861Z,33.17
2022-08-17T10:54:01.912Z,33.59
2022-08-17T10:56:46.837Z,33.37
2022-08-17T10:59:10.698Z,33.94
2022-08-17T11:02:14.010Z,34.20
2022-08-17T11:05:11.310Z,33.79
2022-08-17T11:07:54.003Z,33.81
2022-08-17T11:10:51.922Z,33.93
2022-08-17T11:13:32.439Z,33.74
2022-08-17T11:16:12.475Z,34.10
2022-08-17T11:19:11.945Z,34.09
2022-08-17T11:22:35.232Z,34.80
2022-08-17T11:25:15.503Z,35.05
2022-08-17T11:27:39.337Z,34.69
2022-08-17T11:30:07.862Z,34.85
2022-08-17T11:32:47.468Z,35.03
2022-08-17T11:35:35.348Z,35.51
2022-08-17T11:38:16.311Z,35.11
2022-08-17T11:41:13.400Z,35.16
2022-08-17T11:44:15.447Z,36.00
2022-08-17T11:47:23.989Z,36.01
2022-08-17T11:50:36.505Z,33.86
2022-08-17T11:53:00.300Z,34.22
2022-08-17T11:56:06.655Z,35.18
2022-08-17T11:58:38.559Z,35.51
2022-08-17T12:01:03.017Z,35.38
2022-08-17T12:03:57.062Z,35.51
2022-08-17T12:06:33.408Z,35.72
2022-08-17T12:09:03.101Z,36.01
2022-08-17T12:12:01.708Z,36.00
2022-08-17T12:14:45.016Z,36.06
2022-08-17T12:17:14.152Z,35.96
2022-08-17T12:19:49.961Z,35.30
2022-08-17T12:22:21.976Z,35.69
2022-08-17T12:24:56.788Z,36.25
2022-08-17T12:27:46.186Z,36.14
2022-08-17T12:30:21.440Z,35.82
2022-08-17T12:32:47.786Z,35.99
2022-08-17T12:35:23.207Z,36.10
2022-08-17T12:37:51.324Z,36.20
2022-08-17T12:40:23.712Z,35.56
2022-08-17T12:42:59.210Z,35.83
2022-08-17T12:45:29.438Z,35.14
2022-08-17T12:48:04.198Z,35.73
2022-08-17T12:50:30.241Z,35.30
2022-08-17T12:52:59.666Z,35.62
2022-08-17T12:55:26.390Z,35.77
2022-08-17T12:57:59.789Z,35.74
2022-08-17T13:00:30.623Z,35.60
2022-08-17T13:03:00.195Z,35.76
2022-08-17T13:05:29.074Z,35.59
2022-08-17T13:07:54.619Z,35.61
2022-08-17T13:10:30.084Z,35.85
2022-08-17T13:12:58.157Z,36.31
2022-08-17T13:15:29.706Z,35.33
2022-08-17T13:18:07.040Z,35.29
2022-08-17T13:20:31.705Z,35.56
2022-08-17T13:22:58.267Z,35.59
2022-08-17T13:25:22.041Z,35.73
2022-08-17T13:27:46.666Z,35.26
2022-08-17T13:30:14.873Z,35.23
2022-08-17T13:32:45.689Z,35.07
2022-08-17T13:35:39.214Z,35.43
2022-08-17T13:38:07.344Z,35.46
2022-08-17T13:40:54.181Z,35.52
2022-08-17T13:43:44.795Z,34.60
2022-08-17T13:46:20.452Z,35.38
2022-08-17T13:48:44.500Z,35.36
2022-08-17T13:51:30.376Z,35.26
2022-08-17T13:54:05.549Z,35.09
2022-08-17T13:56:38.762Z,34.99
2022-08-17T13:59:07.213Z,34.79
2022-08-17T14:01:36.001Z,34.45
2022-08-17T14:04:03.068Z,34.60
2022-08-17T14:06:51.799Z,35.18
2022-08-17T14:09:18.732Z,35.18
2022-08-17T14:11:46.083Z,34.60
2022-08-17T14:14:10.488Z,34.85
2022-08-17T14:16:41.863Z,34.54
2022-08-17T14:19:06.033Z,34.77
2022-08-17T14:21:29.758Z,34.60
2022-08-17T14:23:54.937Z,34.78
2022-08-17T14:26:18.944Z,34.46
2022-08-17T14:28:47.758Z,34.38
2022-08-17T14:31:20.722Z,34.53
2022-08-17T14:33:45.964Z,34.25
2022-08-17T14:36:10.101Z,34.25
2022-08-17T14:38:35.913Z,34.41
2022-08-17T14:40:59.687Z,34.64
2022-08-17T14:43:23.371Z,34.14
2022-08-17T14:45:47.107Z,34.43
2022-08-17T14:48:11.066Z,34.50
2022-08-17T14:50:37.490Z,34.79
2022-08-17T14:53:01.755Z,34.65
2022-08-17T14:55:25.696Z,34.39
2022-08-17T14:57:49.636Z,34.69
2022-08-17T15:00:15.723Z,34.68
2022-08-17T15:02:48.227Z,34.79
2022-08-17T15:05:12.028Z,34.77
2022-08-17T15:07:37.066Z,34.74
2022-08-17T15:10:02.059Z,34.51
2022-08-17T15:12:31.818Z,34.64
2022-08-17T15:14:57.136Z,34.69
2022-08-17T15:17:20.854Z,34.67
2022-08-17T15:19:44.621Z,34.63
2022-08-17T15:22:08.699Z,34.55
2022-08-17T15:24:34.195Z,34.68
2022-08-17T15:26:57.895Z,34.65
2022-08-17T15:29:22.672Z,34.41
2022-08-17T15:31:46.566Z,34.55
2022-08-17T15:34:10.356Z,34.55
2022-08-17T15:36:34.834Z,34.59
2022-08-17T15:38:59.001Z,34.53
2022-08-17T15:41:24.132Z,34.54
2022-08-17T15:43:50.909Z,34.38
2022-08-17T15:46:18.051Z,34.32
2022-08-17T15:48:44.638Z,34.25
2022-08-17T15:51:10.608Z,34.18
2022-08-17T15:53:34.353Z,33.96
2022-08-17T15:55:58.584Z,33.87
2022-08-17T15:58:32.249Z,33.94
2022-08-17T16:01:14.658Z,34.03
2022-08-17T16:03:55.130Z,33.83
2022-08-17T16:06:27.405Z,34.11
2022-08-17T16:08:51.577Z,33.70
2022-08-17T16:11:18.616Z,33.55
2022-08-17T16:13:47.297Z,33.49
2022-08-17T16:16:18.712Z,33.52
2022-08-17T16:18:43.101Z,33.10
2022-08-17T16:21:29.680Z,33.06
2022-08-17T16:23:58.375Z,33.14
2022-08-17T16:26:22.972Z,32.94
2022-08-17T16:28:48.378Z,32.93
2022-08-17T16:31:12.615Z,33.11
2022-08-17T16:33:37.670Z,32.86
2022-08-17T16:36:01.550Z,32.92
2022-08-17T16:38:25.357Z,32.79
2022-08-17T16:40:49.088Z,32.85
2022-08-17T16:43:12.824Z,32.83
2022-08-17T16:45:40.720Z,32.72
2022-08-17T16:48:05.623Z,32.57
2022-08-17T16:50:29.324Z,32.55
2022-08-17T16:52:53.410Z,32.54
2022-08-17T16:55:20.486Z,32.25
2022-08-17T16:57:47.232Z,32.25
2022-08-17T17:00:18.063Z,31.98
2022-08-17T17:02:47.441Z,32.03
2022-08-17T17:05:26.918Z,31.92
2022-08-17T17:08:03.543Z,31.74
2022-08-17T17:10:34.544Z,31.67
2022-08-17T17:13:03.708Z,31.63
2022-08-17T17:15:37.485Z,31.50
2022-08-17T17:18:07.818Z,31.39
2022-08-17T17:20:40.141Z,31.36
2022-08-17T17:23:09.531Z,31.27
2022-08-17T17:25:45.348Z,31.20
2022-08-17T17:28:25.007Z,30.71
2022-08-17T17:31:07.533Z,30.97
2022-08-17T17:33:41.538Z,30.87
2022-08-17T17:36:13.768Z,30.68
2022-08-17T17:38:47.124Z,30.70
2022-08-17T17:41:25.361Z,30.60
2022-08-17T17:43:54.046Z,30.47
2022-08-17T17:46:28.033Z,30.39
2022-08-17T17:48:54.141Z,30.39
2022-08-17T17:51:35.151Z,30.26
2022-08-17T17:54:24.205Z,30.25
2022-08-17T17:57:04.952Z,30.10
2022-08-17T17:59:44.044Z,29.98
2022-08-17T18:02:37.027Z,29.81
2022-08-17T18:05:12.837Z,29.68
2022-08-17T18:07:44.694Z,29.59
2022-08-17T18:10:29.462Z,29.40
2022-08-17T18:13:05.509Z,29.37
2022-08-17T18:15:34.917Z,29.16
2022-08-17T18:18:38.583Z,29.12
2022-08-17T18:21:09.080Z,29.00
2022-08-17T18:23:33.538Z,28.86
2022-08-17T18:25:58.767Z,28.71
2022-08-17T18:28:27.943Z,28.76
2022-08-17T18:31:11.832Z,28.64
2022-08-17T18:33:38.898Z,28.55
2022-08-17T18:36:04.300Z,28.41
2022-08-17T18:38:33.839Z,28.36
2022-08-17T18:41:20.516Z,28.23
2022-08-17T18:43:53.668Z,28.12
2022-08-17T18:46:29.638Z,28.06
2022-08-17T18:48:58.950Z,27.98
2022-08-17T18:51:40.538Z,27.90
2022-08-17T18:54:21.622Z,27.76
2022-08-17T18:56:52.044Z,27.65
2022-08-17T18:59:39.440Z,27.51
2022-08-17T19:02:43.382Z,27.40
2022-08-17T19:05:13.641Z,27.29
2022-08-17T19:07:42.756Z,27.21
2022-08-17T19:10:24.640Z,27.17
2022-08-17T19:12:55.099Z,27.09
2022-08-17T19:15:31.880Z,27.02
2022-08-17T19:18:00.872Z,26.91
2022-08-17T19:20:32.081Z,26.82
2022-08-17T19:23:08.396Z,26.73
2022-08-17T19:25:36.115Z,26.64
2022-08-17T19:28:21.930Z,26.51
2022-08-17T19:30:46.589Z,26.49
2022-08-17T19:33:10.680Z,26.43
2022-08-17T19:35:44.881Z,26.38
2022-08-17T19:38:23.480Z,26.30
2022-08-17T19:41:02.188Z,26.22
2022-08-17T19:43:48.101Z,26.14
2022-08-17T19:46:26.163Z,26.10
2022-08-17T19:49:05.148Z,26.04
2022-08-17T19:51:40.661Z,25.85
2022-08-17T19:54:22.869Z,25.77
2022-08-17T19:56:57.112Z,25.65
2022-08-17T19:59:36.378Z,25.43
2022-08-17T20:02:09.993Z,25.49
2022-08-17T20:04:42.540Z,25.42
2022-08-17T20:07:12.268Z,25.36
2022-08-17T20:09:42.755Z,25.36
2022-08-17T20:12:11.885Z,25.27
2022-08-17T20:14:55.001Z,25.21
2022-08-17T20:17:20.278Z,25.18
2022-08-17T20:19:55.513Z,25.07
2022-08-17T20:22:26.563Z,25.05
2022-08-17T20:25:01.335Z,24.98
2022-08-17T20:27:31.925Z,24.92
2022-08-17T20:30:34.238Z,24.86
2022-08-17T20:32:59.795Z,24.84
2022-08-17T20:35:27.477Z,24.79
2022-08-17T20:37:59.886Z,24.37
2022-08-17T20:40:35.904Z,24.61
2022-08-17T20:43:01.216Z,24.60
2022-08-17T20:46:05.631Z,24.62
2022-08-17T20:48:38.787Z,24.59
2022-08-17T20:51:27.281Z,24.53
2022-08-17T20:54:34.500Z,24.54
2022-08-17T20:57:01.563Z,24.52
2022-08-17T21:00:01.430Z,24.52
2022-08-17T21:02:28.088Z,24.42
2022-08-17T21:05:30.234Z,24.57
2022-08-17T21:07:59.108Z,24.41
2022-08-17T21:10:38.165Z,24.51
2022-08-17T21:13:33.131Z,24.48
2022-08-17T21:16:02.407Z,24.41
2022-08-17T21:18:38.608Z,24.43
2022-08-17T21:21:17.903Z,24.30
2022-08-17T21:24:07.552Z,24.43
2022-08-17T21:26:50.075Z,24.44
2022-08-17T21:29:31.730Z,24.45
2022-08-17T21:32:19.031Z,24.35
2022-08-17T21:34:46.204Z,24.39
2022-08-17T21:37:34.946Z,24.36
2022-08-17T21:40:02.644Z,24.28
2022-08-17T21:42:30.272Z,24.25
2022-08-17T21:45:01.125Z,24.28
2022-08-17T21:47:27.873Z,24.24
2022-08-17T21:49:52.404Z,24.23
2022-08-17T21:52:18.858Z,24.29
2022-08-17T21:54:50.411Z,24.37
2022-08-17T21:57:20.984Z,24.36
2022-08-17T21:59:44.936Z,24.41
2022-08-17T22:02:19.330Z,24.38
2022-08-17T22:04:44.131Z,24.43
2022-08-17T22:07:12.426Z,24.40
2022-08-17T22:09:43.962Z,24.47
2022-08-17T22:12:11.404Z,24.38
2022-08-17T22:14:52.553Z,24.41
2022-08-17T22:17:23.325Z,24.29
2022-08-17T22:19:52.185Z,24.26
2022-08-17T22:23:00.068Z,24.25
2022-08-17T22:25:25.060Z,24.33
2022-08-17T22:27:56.476Z,24.26
2022-08-17T22:30:32.128Z,24.17
2022-08-17T22:32:57.689Z,24.21
2022-08-17T22:35:38.884Z,24.25
2022-08-17T22:38:32.646Z,24.20
2022-08-17T22:41:15.282Z,24.21
2022-08-17T22:43:43.089Z,24.13
2022-08-17T22:46:10.601Z,24.19
2022-08-17T22:48:36.304Z,24.02
2022-08-17T22:51:12.344Z,23.97
2022-08-17T22:53:55.836Z,24.09
2022-08-17T22:56:42.028Z,24.11
2022-08-17T22:59:23.544Z,24.13
2022-08-17T23:02:12.743Z,24.10
2022-08-17T23:04:40.872Z,24.01
2022-08-17T23:07:05.508Z,24.01
2022-08-17T23:09:29.967Z,23.95
2022-08-17T23:11:58.875Z,24.01
2022-08-17T23:14:23.220Z,24.05
2022-08-17T23:16:46.998Z,24.09
2022-08-17T23:19:10.961Z,23.97
2022-08-17T23:21:37.239Z,23.98
2022-08-17T23:24:01.267Z,24.08
2022-08-17T23:26:27.810Z,24.02
2022-08-17T23:28:51.767Z,24.01
2022-08-17T23:31:18.767Z,24.06
2022-08-17T23:33:48.340Z,23.98
2022-08-17T23:36:16.964Z,23.82
2022-08-17T23:38:43.587Z,23.94
2022-08-17T23:41:13.741Z,23.98
2022-08-17T23:43:37.479Z,23.77
2022-08-17T23:46:04.088Z,23.94
2022-08-17T23:48:35.574Z,23.92
2022-08-17T23:51:04.083Z,23.94
2022-08-17T23:53:37.464Z,23.78
2022-08-17T23:56:06.892Z,23.79
2022-08-17T23:58:34.271Z,23.71
